HEBA/HBE METAR and TAF weather

Enter ICAO airport designator
Station Type Date Time Source
HEBA METAR 2024/07/23 17:00 UTC NOAA

HEBA 231700Z 31010KT 9999 FEW020 28/24 Q1007 NOSIG


Station Type Date Time Source
HEBA Decoded METAR 2024/07/23 17:00 UTC NOAA

Alexandria Borg El Arab, Egypt (HEBA) 31-31N 030-10E
Jul 23, 2024 - 01:00 PM EDT / 2024.07.23 1700 UTC
Wind: from the NW (310 degrees) at 12 MPH (10 KT):0
Visibility: greater than 7 mile(s):0
Sky conditions: mostly clear
Temperature: 82 F (28 C)
Dew Point: 75 F (24 C)
Relative Humidity: 78%
Pressure (altimeter): 29.74 in. Hg (1007 hPa)
ob: HEBA 231700Z 31010KT 9999 FEW020 28/24 Q1007 NOSIG
cycle: 17

Station Type Date Time Source
HEBA TAF 2024/07/23 18:57 UTC NOAA